createdAt,value
2023-01-30T00:00:36.603Z,95.53
2023-01-30T00:05:57.119Z,95.18
2023-01-30T00:11:13.543Z,94.94
2023-01-30T00:16:19.686Z,94.76
2023-01-30T00:21:23.417Z,94.36
2023-01-30T00:26:27.885Z,94.07
2023-01-30T00:31:31.688Z,94.09
2023-01-30T00:36:35.583Z,94.46
2023-01-30T00:41:58.628Z,94.13
2023-01-30T00:47:06.350Z,94.40
2023-01-30T00:52:10.313Z,94.34
2023-01-30T00:57:14.149Z,94.30
2023-01-30T01:02:18.471Z,94.17
2023-01-30T01:07:22.740Z,94.25
2023-01-30T01:12:27.024Z,94.46
2023-01-30T01:17:30.971Z,94.37
2023-01-30T01:22:35.502Z,94.46
2023-01-30T01:27:39.264Z,93.90
2023-01-30T01:32:42.963Z,94.72
2023-01-30T01:37:47.186Z,94.70
2023-01-30T01:42:51.363Z,94.72
2023-01-30T01:48:35.601Z,94.54
2023-01-30T01:53:54.151Z,95.22
2023-01-30T01:59:03.364Z,94.68
2023-01-30T02:04:10.265Z,94.37
2023-01-30T02:09:14.574Z,94.63
2023-01-30T02:14:19.675Z,94.67
2023-01-30T02:19:41.260Z,94.28
2023-01-30T02:25:01.769Z,94.15
2023-01-30T02:30:39.712Z,94.24
2023-01-30T02:36:19.107Z,94.11
2023-01-30T02:41:25.685Z,93.97
2023-01-30T02:46:58.239Z,94.13
2023-01-30T02:52:04.329Z,93.79
2023-01-30T02:57:23.747Z,93.83
2023-01-30T03:02:51.160Z,93.78
2023-01-30T03:08:09.942Z,93.32
2023-01-30T03:13:41.721Z,93.63
2023-01-30T03:18:51.540Z,93.40
2023-01-30T03:23:55.261Z,93.35
2023-01-30T03:29:00.944Z,93.33
2023-01-30T03:34:04.518Z,93.47
2023-01-30T03:39:08.736Z,93.49
2023-01-30T03:44:13.124Z,93.18
2023-01-30T03:49:19.173Z,93.14
2023-01-30T03:54:23.705Z,93.19
2023-01-30T03:59:28.204Z,93.24
2023-01-30T04:04:38.626Z,93.05
2023-01-30T04:09:43.106Z,93.01
2023-01-30T04:14:48.204Z,92.68
2023-01-30T04:20:12.544Z,92.60
2023-01-30T04:25:21.309Z,92.44
2023-01-30T04:30:26.486Z,91.98
2023-01-30T04:35:37.627Z,91.93
2023-01-30T04:40:42.198Z,91.39
2023-01-30T04:45:47.466Z,91.62
2023-01-30T04:50:53.821Z,91.76
2023-01-30T04:55:57.635Z,91.32
2023-01-30T05:01:38.000Z,91.54
2023-01-30T05:06:42.121Z,91.52
2023-01-30T05:11:45.834Z,91.61
2023-01-30T05:16:49.700Z,91.61
2023-01-30T05:21:53.502Z,91.68
2023-01-30T05:26:57.283Z,91.80
2023-01-30T05:32:00.993Z,91.90
2023-01-30T05:37:05.482Z,91.64
2023-01-30T05:42:09.510Z,92.29
2023-01-30T05:47:13.969Z,92.38
2023-01-30T05:52:17.798Z,92.49
2023-01-30T05:57:21.481Z,92.28
2023-01-30T06:02:26.002Z,92.24
2023-01-30T06:07:30.481Z,92.27
2023-01-30T06:12:34.648Z,92.20
2023-01-30T06:17:40.422Z,92.20
2023-01-30T06:22:44.275Z,92.27
2023-01-30T06:27:48.876Z,92.07
2023-01-30T06:32:52.797Z,92.34
2023-01-30T06:37:56.519Z,92.25
2023-01-30T06:43:02.602Z,92.15
2023-01-30T06:48:07.145Z,92.25
2023-01-30T06:53:11.700Z,92.65
2023-01-30T06:58:16.262Z,92.57
2023-01-30T07:03:20.606Z,92.72
2023-01-30T07:08:52.672Z,92.85
2023-01-30T07:14:38.939Z,92.99
2023-01-30T07:20:13.159Z,93.34
2023-01-30T07:25:26.448Z,93.90
2023-01-30T07:30:42.754Z,94.12
2023-01-30T07:35:52.510Z,94.36
2023-01-30T07:41:00.012Z,94.66
2023-01-30T07:46:04.474Z,95.24
2023-01-30T07:51:08.716Z,95.44
2023-01-30T07:56:19.683Z,96.08
2023-01-30T08:01:25.523Z,96.22
2023-01-30T08:06:31.933Z,96.64
2023-01-30T08:11:36.808Z,96.81
2023-01-30T08:16:43.344Z,96.75
2023-01-30T08:21:48.154Z,96.94
2023-01-30T08:26:55.343Z,96.85
2023-01-30T08:32:00.075Z,96.68
2023-01-30T08:37:08.292Z,96.66
2023-01-30T08:42:17.732Z,96.63
2023-01-30T08:47:22.337Z,96.46
2023-01-30T08:52:27.343Z,96.58
2023-01-30T08:57:33.994Z,96.78
2023-01-30T09:02:39.858Z,97.00
2023-01-30T09:07:43.868Z,97.20
2023-01-30T09:12:48.608Z,97.63
2023-01-30T09:17:56.846Z,97.88
2023-01-30T09:23:02.246Z,98.07
2023-01-30T09:28:06.199Z,98.47
2023-01-30T09:33:11.567Z,98.80
2023-01-30T09:38:16.884Z,99.12
2023-01-30T09:43:45.310Z,99.38
2023-01-30T09:49:05.767Z,99.63
2023-01-30T09:54:24.811Z,99.85
2023-01-30T09:59:40.257Z,99.99
2023-01-30T10:05:00.857Z,99.98
2023-01-30T10:11:04.383Z,100.00
2023-01-30T10:16:29.260Z,100.00
2023-01-30T10:22:11.311Z,100.00
2023-01-30T10:27:18.639Z,100.00
2023-01-30T10:33:14.662Z,100.00
2023-01-30T10:38:22.457Z,100.00
2023-01-30T10:43:44.353Z,100.00
2023-01-30T10:49:17.342Z,100.00
2023-01-30T10:54:43.830Z,100.00
2023-01-30T10:59:51.037Z,100.00
2023-01-30T11:05:17.168Z,100.00
2023-01-30T11:10:31.166Z,100.00
2023-01-30T11:15:41.486Z,100.00
2023-01-30T11:20:48.093Z,100.00
2023-01-30T11:26:10.122Z,100.00
2023-01-30T11:31:41.657Z,100.00
2023-01-30T11:36:52.619Z,100.00
2023-01-30T11:42:16.729Z,100.00
2023-01-30T11:47:25.649Z,100.00
2023-01-30T11:52:32.628Z,100.00
2023-01-30T11:57:42.443Z,100.00
2023-01-30T12:02:48.403Z,100.00
2023-01-30T12:07:54.135Z,100.00
2023-01-30T12:13:01.399Z,100.00
2023-01-30T12:18:19.959Z,100.00
2023-01-30T12:23:53.650Z,100.00
2023-01-30T12:29:02.686Z,100.00
2023-01-30T12:34:08.457Z,100.00
2023-01-30T12:39:41.974Z,100.00
2023-01-30T12:44:49.278Z,100.00
2023-01-30T12:50:15.374Z,100.00
2023-01-30T12:56:07.216Z,100.00
2023-01-30T13:01:30.838Z,100.00
2023-01-30T13:07:26.232Z,100.00
2023-01-30T13:13:11.068Z,100.00
2023-01-30T13:18:38.359Z,100.00
2023-01-30T13:24:02.294Z,100.00
2023-01-30T13:29:28.469Z,100.00
2023-01-30T13:34:43.851Z,100.00
2023-01-30T13:39:55.638Z,100.00
2023-01-30T13:45:00.971Z,100.00
2023-01-30T13:50:51.584Z,100.00
2023-01-30T13:56:27.165Z,100.00
2023-01-30T14:02:22.049Z,100.00
2023-01-30T14:07:44.771Z,100.00
2023-01-30T14:12:51.131Z,100.00
2023-01-30T14:18:08.229Z,100.00
2023-01-30T14:23:23.623Z,100.00
2023-01-30T14:28:30.219Z,100.00
2023-01-30T14:33:51.441Z,100.00
2023-01-30T14:39:36.612Z,100.00
2023-01-30T14:45:05.229Z,100.00
2023-01-30T14:50:23.604Z,100.00
2023-01-30T14:55:34.940Z,100.00
2023-01-30T15:00:39.421Z,100.00
2023-01-30T15:05:45.269Z,100.00
2023-01-30T15:10:52.136Z,100.00
2023-01-30T15:16:28.515Z,100.00
2023-01-30T15:22:11.419Z,100.00
2023-01-30T15:27:31.934Z,99.65
2023-01-30T15:32:35.944Z,99.76
2023-01-30T15:37:51.484Z,99.99
2023-01-30T15:43:21.991Z,99.84
2023-01-30T15:49:07.390Z,99.96
2023-01-30T15:54:12.962Z,100.00
2023-01-30T15:59:44.676Z,100.00
2023-01-30T16:04:49.226Z,100.00
2023-01-30T16:10:08.699Z,99.58
2023-01-30T16:15:20.078Z,99.51
2023-01-30T16:20:25.063Z,99.29
2023-01-30T16:25:35.915Z,99.61
2023-01-30T16:30:42.918Z,99.19
2023-01-30T16:35:47.581Z,99.11
2023-01-30T16:40:52.499Z,99.76
2023-01-30T16:46:34.863Z,99.71
2023-01-30T16:51:42.421Z,99.39
2023-01-30T16:57:17.041Z,99.68
2023-01-30T17:02:45.397Z,99.08
2023-01-30T17:07:52.875Z,99.19
2023-01-30T17:13:00.288Z,99.16
2023-01-30T17:18:07.158Z,99.32
2023-01-30T17:23:18.063Z,99.18
2023-01-30T17:28:24.947Z,99.15
2023-01-30T17:33:34.872Z,99.31
2023-01-30T17:38:40.471Z,99.32
2023-01-30T17:43:44.685Z,99.53
2023-01-30T17:48:52.245Z,99.84
2023-01-30T17:54:00.032Z,99.47
2023-01-30T17:59:25.167Z,99.40
2023-01-30T18:04:29.812Z,99.91
2023-01-30T18:09:34.732Z,100.00
2023-01-30T18:14:39.741Z,100.00
2023-01-30T18:19:46.512Z,100.00
2023-01-30T18:24:55.279Z,100.00
2023-01-30T18:30:00.478Z,100.00
2023-01-30T18:35:07.392Z,100.00
2023-01-30T18:40:15.734Z,100.00
2023-01-30T18:45:21.353Z,100.00
2023-01-30T18:50:26.182Z,100.00
2023-01-30T18:55:32.052Z,100.00
2023-01-30T19:00:37.253Z,100.00
2023-01-30T19:05:42.817Z,100.00
2023-01-30T19:10:51.034Z,100.00
2023-01-30T19:16:04.694Z,100.00
2023-01-30T19:21:11.041Z,100.00
2023-01-30T19:26:17.798Z,100.00
2023-01-30T19:31:24.216Z,100.00
2023-01-30T19:36:33.798Z,100.00
2023-01-30T19:41:39.402Z,100.00
2023-01-30T19:46:45.513Z,100.00
2023-01-30T19:51:50.524Z,100.00
2023-01-30T19:56:59.950Z,100.00
2023-01-30T20:09:15.129Z,100.00
2023-01-30T20:14:27.358Z,100.00
2023-01-30T20:19:35.329Z,100.00
2023-01-30T20:24:43.079Z,100.00
2023-01-30T20:29:53.367Z,100.00
2023-01-30T20:35:02.866Z,100.00
2023-01-30T20:40:10.557Z,100.00
2023-01-30T20:45:19.852Z,100.00
2023-01-30T20:50:28.879Z,100.00
2023-01-30T20:55:34.685Z,100.00
2023-01-30T21:00:40.769Z,100.00
2023-01-30T21:05:58.370Z,100.00
2023-01-30T21:11:13.715Z,100.00
2023-01-30T21:16:26.501Z,100.00
2023-01-30T21:21:37.069Z,100.00
2023-01-30T21:26:46.798Z,100.00
2023-01-30T21:31:52.482Z,100.00
2023-01-30T21:37:16.267Z,100.00
2023-01-30T21:42:40.389Z,100.00
2023-01-30T21:47:45.723Z,100.00
2023-01-30T21:52:50.109Z,100.00
2023-01-30T21:57:54.405Z,100.00
2023-01-30T22:03:03.636Z,100.00
2023-01-30T22:08:16.428Z,100.00
2023-01-30T22:13:20.604Z,100.00
2023-01-30T22:18:24.583Z,100.00
2023-01-30T22:23:38.536Z,100.00
2023-01-30T22:28:48.612Z,100.00
2023-01-30T22:34:00.608Z,100.00
2023-01-30T22:39:06.704Z,100.00
2023-01-30T22:44:14.051Z,100.00
2023-01-30T22:49:19.697Z,100.00
2023-01-30T22:54:24.998Z,100.00
2023-01-30T22:59:30.253Z,100.00
2023-01-30T23:04:34.331Z,100.00
2023-01-30T23:09:38.300Z,100.00
2023-01-30T23:14:45.443Z,100.00
2023-01-30T23:19:51.372Z,100.00
2023-01-30T23:24:56.962Z,100.00
2023-01-30T23:30:01.001Z,100.00
2023-01-30T23:35:05.283Z,100.00
2023-01-30T23:40:11.467Z,100.00
2023-01-30T23:45:15.412Z,100.00
2023-01-30T23:50:19.358Z,100.00
2023-01-30T23:55:23.357Z,100.00
